sensor_id;sensor_type;location;lat;lon;timestamp;temperature;humidity
14475;DHT22;7323;50.848;4.334;2023-04-20T00:00:33;10.10;1.00
14475;DHT22;7323;50.848;4.334;2023-04-20T00:03:09;9.70;1.00
14475;DHT22;7323;50.848;4.334;2023-04-20T00:05:40;9.90;99.90
14475;DHT22;7323;50.848;4.334;2023-04-20T00:08:07;9.90;99.90
14475;DHT22;7323;50.848;4.334;2023-04-20T00:10:38;9.90;1.00
14475;DHT22;7323;50.848;4.334;2023-04-20T00:13:04;9.90;1.00
14475;DHT22;7323;50.848;4.334;2023-04-20T00:15:31;9.90;99.90
14475;DHT22;7323;50.848;4.334;2023-04-20T00:18:03;9.90;1.00
14475;DHT22;7323;50.848;4.334;2023-04-20T00:20:30;9.80;21.40
14475;DHT22;7323;50.848;4.334;2023-04-20T00:23:01;9.70;1.00
14475;DHT22;7323;50.848;4.334;2023-04-20T00:25:27;9.80;39.50
14475;DHT22;7323;50.848;4.334;2023-04-20T00:27:55;9.70;1.00
14475;DHT22;7323;50.848;4.334;2023-04-20T00:30:21;9.60;1.00
14475;DHT22;7323;50.848;4.334;2023-04-20T00:32:50;9.60;99.90
14475;DHT22;7323;50.848;4.334;2023-04-20T00:35:21;9.60;1.00
14475;DHT22;7323;50.848;4.334;2023-04-20T00:37:54;9.60;1.00
14475;DHT22;7323;50.848;4.334;2023-04-20T00:40:19;9.60;1.00
14475;DHT22;7323;50.848;4.334;2023-04-20T00:42:45;9.60;1.00
14475;DHT22;7323;50.848;4.334;2023-04-20T00:45:13;9.60;99.90
14475;DHT22;7323;50.848;4.334;2023-04-20T00:47:39;9.50;99.90
14475;DHT22;7323;50.848;4.334;2023-04-20T00:50:06;9.50;99.90
14475;DHT22;7323;50.848;4.334;2023-04-20T00:52:32;9.50;99.90
14475;DHT22;7323;50.848;4.334;2023-04-20T00:54:58;9.40;1.00
14475;DHT22;7323;50.848;4.334;2023-04-20T00:57:25;9.40;1.00
14475;DHT22;7323;50.848;4.334;2023-04-20T00:59:55;9.40;1.00
14475;DHT22;7323;50.848;4.334;2023-04-20T01:02:21;9.30;1.00
14475;DHT22;7323;50.848;4.334;2023-04-20T01:04:47;9.30;2.60
14475;DHT22;7323;50.848;4.334;2023-04-20T01:07:14;9.20;99.90
14475;DHT22;7323;50.848;4.334;2023-04-20T01:09:40;9.20;1.00
14475;DHT22;7323;50.848;4.334;2023-04-20T01:12:08;9.10;99.90
14475;DHT22;7323;50.848;4.334;2023-04-20T01:14:34;9.10;65.30
14475;DHT22;7323;50.848;4.334;2023-04-20T01:17:00;9.00;99.90
14475;DHT22;7323;50.848;4.334;2023-04-20T01:19:30;9.00;99.90
14475;DHT22;7323;50.848;4.334;2023-04-20T01:21:57;9.00;1.00
14475;DHT22;7323;50.848;4.334;2023-04-20T01:24:23;9.00;1.00
14475;DHT22;7323;50.848;4.334;2023-04-20T01:26:48;8.90;1.00
14475;DHT22;7323;50.848;4.334;2023-04-20T01:29:14;9.00;1.00
14475;DHT22;7323;50.848;4.334;2023-04-20T01:31:43;9.00;1.00
14475;DHT22;7323;50.848;4.334;2023-04-20T01:34:11;9.10;1.00
14475;DHT22;7323;50.848;4.334;2023-04-20T01:36:40;8.90;1.00
14475;DHT22;7323;50.848;4.334;2023-04-20T01:39:06;8.80;99.90
14475;DHT22;7323;50.848;4.334;2023-04-20T01:41:34;8.80;1.00
14475;DHT22;7323;50.848;4.334;2023-04-20T01:44:02;8.70;99.90
14475;DHT22;7323;50.848;4.334;2023-04-20T01:46:28;8.60;99.90
14475;DHT22;7323;50.848;4.334;2023-04-20T01:48:54;8.60;99.90
14475;DHT22;7323;50.848;4.334;2023-04-20T01:51:22;8.80;1.00
14475;DHT22;7323;50.848;4.334;2023-04-20T01:53:48;8.80;1.00
14475;DHT22;7323;50.848;4.334;2023-04-20T01:56:14;8.70;1.00
14475;DHT22;7323;50.848;4.334;2023-04-20T01:58:39;8.70;99.90
14475;DHT22;7323;50.848;4.334;2023-04-20T02:01:05;8.60;1.00
14475;DHT22;7323;50.848;4.334;2023-04-20T02:03:31;8.60;99.90
14475;DHT22;7323;50.848;4.334;2023-04-20T02:05:56;8.60;1.00
14475;DHT22;7323;50.848;4.334;2023-04-20T02:08:23;8.20;99.90
14475;DHT22;7323;50.848;4.334;2023-04-20T02:10:49;8.50;99.90
14475;DHT22;7323;50.848;4.334;2023-04-20T02:13:14;8.60;1.00
14475;DHT22;7323;50.848;4.334;2023-04-20T02:15:40;8.40;1.00
14475;DHT22;7323;50.848;4.334;2023-04-20T02:18:06;8.40;1.00
14475;DHT22;7323;50.848;4.334;2023-04-20T02:20:31;8.60;1.00
14475;DHT22;7323;50.848;4.334;2023-04-20T02:22:57;8.30;1.00
14475;DHT22;7323;50.848;4.334;2023-04-20T02:25:26;8.30;1.00
14475;DHT22;7323;50.848;4.334;2023-04-20T02:27:52;8.20;1.00
14475;DHT22;7323;50.848;4.334;2023-04-20T02:30:18;8.20;1.00
14475;DHT22;7323;50.848;4.334;2023-04-20T02:32:44;8.20;1.50
14475;DHT22;7323;50.848;4.334;2023-04-20T02:35:10;8.10;4.40
14475;DHT22;7323;50.848;4.334;2023-04-20T02:37:35;8.20;1.00
14475;DHT22;7323;50.848;4.334;2023-04-20T02:40:01;8.10;1.00
14475;DHT22;7323;50.848;4.334;2023-04-20T02:42:27;8.10;99.90
14475;DHT22;7323;50.848;4.334;2023-04-20T02:44:52;8.10;99.90
14475;DHT22;7323;50.848;4.334;2023-04-20T02:47:19;8.00;99.90
14475;DHT22;7323;50.848;4.334;2023-04-20T02:49:45;8.00;99.90
14475;DHT22;7323;50.848;4.334;2023-04-20T02:52:12;8.00;99.90
14475;DHT22;7323;50.848;4.334;2023-04-20T02:54:37;8.00;99.90
14475;DHT22;7323;50.848;4.334;2023-04-20T02:57:03;8.00;99.90
14475;DHT22;7323;50.848;4.334;2023-04-20T02:59:40;8.00;1.00
14475;DHT22;7323;50.848;4.334;2023-04-20T03:02:06;8.00;99.90
14475;DHT22;7323;50.848;4.334;2023-04-20T03:04:42;8.00;99.90
14475;DHT22;7323;50.848;4.334;2023-04-20T03:07:08;8.00;99.90
14475;DHT22;7323;50.848;4.334;2023-04-20T03:09:37;8.10;99.90
14475;DHT22;7323;50.848;4.334;2023-04-20T03:12:07;8.10;96.40
14475;DHT22;7323;50.848;4.334;2023-04-20T03:14:45;8.10;1.00
14475;DHT22;7323;50.848;4.334;2023-04-20T03:17:11;8.00;58.00
14475;DHT22;7323;50.848;4.334;2023-04-20T03:19:50;8.00;1.00
14475;DHT22;7323;50.848;4.334;2023-04-20T04:13:53;7.50;1.00
14475;DHT22;7323;50.848;4.334;2023-04-20T04:20:42;7.40;1.00
14475;DHT22;7323;50.848;4.334;2023-04-20T04:23:40;7.30;1.00
14475;DHT22;7323;50.848;4.334;2023-04-20T04:26:16;7.30;1.00
14475;DHT22;7323;50.848;4.334;2023-04-20T04:29:12;7.40;1.00
14475;DHT22;7323;50.848;4.334;2023-04-20T04:42:14;7.30;1.00
14475;DHT22;7323;50.848;4.334;2023-04-20T04:45:24;7.40;1.00
14475;DHT22;7323;50.848;4.334;2023-04-20T04:52:13;7.30;1.00
14475;DHT22;7323;50.848;4.334;2023-04-20T04:54:45;7.30;77.50
14475;DHT22;7323;50.848;4.334;2023-04-20T04:57:24;7.40;99.90
14475;DHT22;7323;50.848;4.334;2023-04-20T05:00:43;7.30;99.90
14475;DHT22;7323;50.848;4.334;2023-04-20T05:13:53;7.40;99.90
14475;DHT22;7323;50.848;4.334;2023-04-20T05:20:36;7.40;99.90
14475;DHT22;7323;50.848;4.334;2023-04-20T05:36:56;7.60;1.00
14475;DHT22;7323;50.848;4.334;2023-04-20T05:39:41;7.60;1.00
14475;DHT22;7323;50.848;4.334;2023-04-20T05:42:44;7.60;1.00
14475;DHT22;7323;50.848;4.334;2023-04-20T05:45:24;7.60;1.00
14475;DHT22;7323;50.848;4.334;2023-04-20T05:47:54;7.70;1.00
14475;DHT22;7323;50.848;4.334;2023-04-20T06:01:08;7.90;1.00
14475;DHT22;7323;50.848;4.334;2023-04-20T06:06:58;8.00;1.00
14475;DHT22;7323;50.848;4.334;2023-04-20T06:09:49;8.00;1.00
14475;DHT22;7323;50.848;4.334;2023-04-20T06:15:48;8.00;1.00
14475;DHT22;7323;50.848;4.334;2023-04-20T06:22:22;8.10;1.00
14475;DHT22;7323;50.848;4.334;2023-04-20T06:28:45;8.20;1.00
14475;DHT22;7323;50.848;4.334;2023-04-20T06:31:15;8.10;1.00
14475;DHT22;7323;50.848;4.334;2023-04-20T06:33:41;8.20;1.00
14475;DHT22;7323;50.848;4.334;2023-04-20T06:36:28;8.20;1.00
14475;DHT22;7323;50.848;4.334;2023-04-20T06:38:58;8.20;1.00
14475;DHT22;7323;50.848;4.334;2023-04-20T06:41:55;8.20;1.00
14475;DHT22;7323;50.848;4.334;2023-04-20T06:44:28;8.20;1.00
14475;DHT22;7323;50.848;4.334;2023-04-20T06:46:54;8.30;1.00
14475;DHT22;7323;50.848;4.334;2023-04-20T06:49:20;8.30;1.00
14475;DHT22;7323;50.848;4.334;2023-04-20T06:51:49;8.20;1.00
14475;DHT22;7323;50.848;4.334;2023-04-20T06:54:17;8.00;1.00
14475;DHT22;7323;50.848;4.334;2023-04-20T07:00:42;8.00;1.00
14475;DHT22;7323;50.848;4.334;2023-04-20T07:03:46;8.20;1.00
14475;DHT22;7323;50.848;4.334;2023-04-20T07:06:16;8.10;1.00
14475;DHT22;7323;50.848;4.334;2023-04-20T07:08:44;8.10;1.00
14475;DHT22;7323;50.848;4.334;2023-04-20T07:11:13;8.10;1.00
14475;DHT22;7323;50.848;4.334;2023-04-20T07:13:42;8.10;1.00
14475;DHT22;7323;50.848;4.334;2023-04-20T07:16:14;8.10;1.00
14475;DHT22;7323;50.848;4.334;2023-04-20T07:18:40;8.10;1.00
14475;DHT22;7323;50.848;4.334;2023-04-20T07:21:06;8.10;1.00
14475;DHT22;7323;50.848;4.334;2023-04-20T07:23:32;8.20;1.00
14475;DHT22;7323;50.848;4.334;2023-04-20T07:25:58;8.30;1.00
14475;DHT22;7323;50.848;4.334;2023-04-20T07:28:23;8.10;1.00
14475;DHT22;7323;50.848;4.334;2023-04-20T07:30:49;8.30;1.00
14475;DHT22;7323;50.848;4.334;2023-04-20T07:33:15;8.10;1.00
14475;DHT22;7323;50.848;4.334;2023-04-20T07:35:41;8.10;1.00
14475;DHT22;7323;50.848;4.334;2023-04-20T07:38:07;8.00;1.00
14475;DHT22;7323;50.848;4.334;2023-04-20T07:40:35;7.90;1.00
14475;DHT22;7323;50.848;4.334;2023-04-20T07:43:01;8.00;1.00
14475;DHT22;7323;50.848;4.334;2023-04-20T07:45:29;7.90;1.00
14475;DHT22;7323;50.848;4.334;2023-04-20T07:47:54;7.90;1.00
14475;DHT22;7323;50.848;4.334;2023-04-20T07:50:21;8.00;1.00
14475;DHT22;7323;50.848;4.334;2023-04-20T07:52:47;7.90;1.00
14475;DHT22;7323;50.848;4.334;2023-04-20T07:55:15;8.00;1.00
14475;DHT22;7323;50.848;4.334;2023-04-20T07:57:41;8.10;1.00
14475;DHT22;7323;50.848;4.334;2023-04-20T08:00:07;8.00;1.00
14475;DHT22;7323;50.848;4.334;2023-04-20T08:02:34;8.10;1.00
14475;DHT22;7323;50.848;4.334;2023-04-20T08:05:03;8.10;1.00
14475;DHT22;7323;50.848;4.334;2023-04-20T08:07:30;8.10;1.00
14475;DHT22;7323;50.848;4.334;2023-04-20T08:09:56;8.10;1.00
14475;DHT22;7323;50.848;4.334;2023-04-20T08:12:22;8.20;1.00
14475;DHT22;7323;50.848;4.334;2023-04-20T08:14:50;8.20;1.00
14475;DHT22;7323;50.848;4.334;2023-04-20T08:17:16;8.20;1.00
14475;DHT22;7323;50.848;4.334;2023-04-20T08:19:41;8.40;1.00
14475;DHT22;7323;50.848;4.334;2023-04-20T08:22:07;8.10;1.00
14475;DHT22;7323;50.848;4.334;2023-04-20T08:24:33;8.20;1.00
14475;DHT22;7323;50.848;4.334;2023-04-20T08:27:00;8.20;1.00
14475;DHT22;7323;50.848;4.334;2023-04-20T08:29:29;8.20;1.00
14475;DHT22;7323;50.848;4.334;2023-04-20T08:31:54;8.30;1.00
14475;DHT22;7323;50.848;4.334;2023-04-20T08:34:23;8.40;1.00
14475;DHT22;7323;50.848;4.334;2023-04-20T08:36:52;8.40;1.00
14475;DHT22;7323;50.848;4.334;2023-04-20T08:39:26;8.30;1.00
14475;DHT22;7323;50.848;4.334;2023-04-20T08:41:53;8.30;1.00
14475;DHT22;7323;50.848;4.334;2023-04-20T08:44:20;8.40;1.00
14475;DHT22;7323;50.848;4.334;2023-04-20T08:46:47;8.50;1.00
14475;DHT22;7323;50.848;4.334;2023-04-20T08:49:18;8.50;1.00
14475;DHT22;7323;50.848;4.334;2023-04-20T08:51:46;8.60;1.00
14475;DHT22;7323;50.848;4.334;2023-04-20T08:54:13;8.60;1.00
14475;DHT22;7323;50.848;4.334;2023-04-20T08:56:44;8.80;1.00
14475;DHT22;7323;50.848;4.334;2023-04-20T08:59:11;8.80;1.00
14475;DHT22;7323;50.848;4.334;2023-04-20T09:01:42;8.90;1.00
14475;DHT22;7323;50.848;4.334;2023-04-20T09:06:52;8.80;1.00
14475;DHT22;7323;50.848;4.334;2023-04-20T09:09:20;8.70;1.00
14475;DHT22;7323;50.848;4.334;2023-04-20T09:11:57;8.80;1.00
14475;DHT22;7323;50.848;4.334;2023-04-20T09:14:23;8.80;1.00
14475;DHT22;7323;50.848;4.334;2023-04-20T09:16:55;8.90;1.00
14475;DHT22;7323;50.848;4.334;2023-04-20T09:19:28;8.90;1.00
14475;DHT22;7323;50.848;4.334;2023-04-20T09:22:00;9.00;1.00
14475;DHT22;7323;50.848;4.334;2023-04-20T09:24:33;9.00;1.00
14475;DHT22;7323;50.848;4.334;2023-04-20T09:26:59;8.90;1.00
14475;DHT22;7323;50.848;4.334;2023-04-20T09:29:28;8.90;1.00
14475;DHT22;7323;50.848;4.334;2023-04-20T09:31:57;9.00;1.00
14475;DHT22;7323;50.848;4.334;2023-04-20T09:34:23;9.00;1.00
14475;DHT22;7323;50.848;4.334;2023-04-20T09:36:51;9.30;1.00
14475;DHT22;7323;50.848;4.334;2023-04-20T09:39:22;9.60;1.00
14475;DHT22;7323;50.848;4.334;2023-04-20T09:41:54;9.80;1.00
14475;DHT22;7323;50.848;4.334;2023-04-20T09:44:24;10.00;1.00
14475;DHT22;7323;50.848;4.334;2023-04-20T09:46:51;10.10;1.00
14475;DHT22;7323;50.848;4.334;2023-04-20T09:49:17;10.20;1.00
14475;DHT22;7323;50.848;4.334;2023-04-20T09:51:43;10.00;1.00
14475;DHT22;7323;50.848;4.334;2023-04-20T09:54:10;10.00;1.00
14475;DHT22;7323;50.848;4.334;2023-04-20T09:56:37;9.90;1.00
14475;DHT22;7323;50.848;4.334;2023-04-20T09:59:05;9.80;1.00
14475;DHT22;7323;50.848;4.334;2023-04-20T10:01:34;9.70;1.00
14475;DHT22;7323;50.848;4.334;2023-04-20T10:04:06;9.70;1.00
14475;DHT22;7323;50.848;4.334;2023-04-20T10:06:35;9.60;1.00
14475;DHT22;7323;50.848;4.334;2023-04-20T10:09:19;9.60;1.00
14475;DHT22;7323;50.848;4.334;2023-04-20T10:11:45;9.50;1.00
14475;DHT22;7323;50.848;4.334;2023-04-20T10:14:21;9.40;1.00
14475;DHT22;7323;50.848;4.334;2023-04-20T10:17:00;9.40;1.00
14475;DHT22;7323;50.848;4.334;2023-04-20T10:19:36;9.60;1.00
14475;DHT22;7323;50.848;4.334;2023-04-20T10:22:03;9.60;1.00
14475;DHT22;7323;50.848;4.334;2023-04-20T10:24:30;9.60;1.00
14475;DHT22;7323;50.848;4.334;2023-04-20T10:26:57;9.60;1.00
14475;DHT22;7323;50.848;4.334;2023-04-20T10:29:24;9.70;1.00
14475;DHT22;7323;50.848;4.334;2023-04-20T10:31:50;9.60;1.00
14475;DHT22;7323;50.848;4.334;2023-04-20T10:34:29;9.60;1.00
14475;DHT22;7323;50.848;4.334;2023-04-20T10:37:06;9.70;1.00
14475;DHT22;7323;50.848;4.334;2023-04-20T10:39:43;9.80;1.00
14475;DHT22;7323;50.848;4.334;2023-04-20T10:42:09;9.60;1.00
14475;DHT22;7323;50.848;4.334;2023-04-20T10:44:45;9.60;1.00
14475;DHT22;7323;50.848;4.334;2023-04-20T10:47:11;9.70;1.00
14475;DHT22;7323;50.848;4.334;2023-04-20T10:49:38;9.70;1.00
14475;DHT22;7323;50.848;4.334;2023-04-20T10:52:05;9.70;1.00
14475;DHT22;7323;50.848;4.334;2023-04-20T10:54:38;9.80;1.00
14475;DHT22;7323;50.848;4.334;2023-04-20T10:57:04;9.80;1.00
14475;DHT22;7323;50.848;4.334;2023-04-20T10:59:31;9.70;1.00
14475;DHT22;7323;50.848;4.334;2023-04-20T11:02:05;9.70;1.00
14475;DHT22;7323;50.848;4.334;2023-04-20T11:04:35;9.70;1.00
14475;DHT22;7323;50.848;4.334;2023-04-20T11:07:05;9.60;1.00
14475;DHT22;7323;50.848;4.334;2023-04-20T11:09:32;9.60;1.00
14475;DHT22;7323;50.848;4.334;2023-04-20T11:12:03;9.50;1.00
14475;DHT22;7323;50.848;4.334;2023-04-20T11:14:30;9.50;1.00
14475;DHT22;7323;50.848;4.334;2023-04-20T11:16:56;9.50;1.00
14475;DHT22;7323;50.848;4.334;2023-04-20T11:19:27;9.50;1.00
14475;DHT22;7323;50.848;4.334;2023-04-20T11:21:54;9.40;1.00
14475;DHT22;7323;50.848;4.334;2023-04-20T11:24:25;9.50;1.00
14475;DHT22;7323;50.848;4.334;2023-04-20T11:27:02;9.60;1.00
14475;DHT22;7323;50.848;4.334;2023-04-20T11:29:35;9.70;1.00
14475;DHT22;7323;50.848;4.334;2023-04-20T11:32:07;9.80;1.00
14475;DHT22;7323;50.848;4.334;2023-04-20T11:34:34;9.80;1.00
14475;DHT22;7323;50.848;4.334;2023-04-20T11:37:05;9.90;1.00
14475;DHT22;7323;50.848;4.334;2023-04-20T11:39:32;10.00;1.00
14475;DHT22;7323;50.848;4.334;2023-04-20T11:42:03;10.00;1.00
14475;DHT22;7323;50.848;4.334;2023-04-20T11:44:28;9.90;1.00
14475;DHT22;7323;50.848;4.334;2023-04-20T11:46:59;9.80;1.00
14475;DHT22;7323;50.848;4.334;2023-04-20T11:49:27;9.70;1.00
14475;DHT22;7323;50.848;4.334;2023-04-20T11:51:54;9.80;1.00
14475;DHT22;7323;50.848;4.334;2023-04-20T11:54:20;9.90;1.00
14475;DHT22;7323;50.848;4.334;2023-04-20T11:56:46;9.80;1.00
14475;DHT22;7323;50.848;4.334;2023-04-20T11:59:12;9.90;1.00
14475;DHT22;7323;50.848;4.334;2023-04-20T12:01:45;10.00;1.00
14475;DHT22;7323;50.848;4.334;2023-04-20T12:04:14;10.00;1.00
14475;DHT22;7323;50.848;4.334;2023-04-20T12:06:41;10.00;1.00
14475;DHT22;7323;50.848;4.334;2023-04-20T12:09:07;10.10;1.00
14475;DHT22;7323;50.848;4.334;2023-04-20T12:11:33;10.20;1.00
14475;DHT22;7323;50.848;4.334;2023-04-20T12:13:59;10.20;1.00
14475;DHT22;7323;50.848;4.334;2023-04-20T12:16:29;10.40;1.00
14475;DHT22;7323;50.848;4.334;2023-04-20T12:18:54;10.60;1.00
14475;DHT22;7323;50.848;4.334;2023-04-20T12:21:21;10.50;1.00
14475;DHT22;7323;50.848;4.334;2023-04-20T12:23:47;10.50;1.00
14475;DHT22;7323;50.848;4.334;2023-04-20T12:26:16;10.60;1.00
14475;DHT22;7323;50.848;4.334;2023-04-20T12:28:42;10.60;1.00
14475;DHT22;7323;50.848;4.334;2023-04-20T12:31:09;10.70;1.00
14475;DHT22;7323;50.848;4.334;2023-04-20T12:33:41;10.60;1.00
14475;DHT22;7323;50.848;4.334;2023-04-20T12:36:08;10.50;1.00
14475;DHT22;7323;50.848;4.334;2023-04-20T12:38:35;10.50;1.00
14475;DHT22;7323;50.848;4.334;2023-04-20T12:41:01;10.60;1.00
14475;DHT22;7323;50.848;4.334;2023-04-20T12:43:29;10.60;1.00
14475;DHT22;7323;50.848;4.334;2023-04-20T12:45:55;10.60;1.00
14475;DHT22;7323;50.848;4.334;2023-04-20T12:48:21;10.60;1.00
14475;DHT22;7323;50.848;4.334;2023-04-20T12:50:47;10.60;1.00
14475;DHT22;7323;50.848;4.334;2023-04-20T12:53:13;10.50;1.00
14475;DHT22;7323;50.848;4.334;2023-04-20T12:55:39;10.50;1.00
14475;DHT22;7323;50.848;4.334;2023-04-20T12:58:07;10.40;1.00
14475;DHT22;7323;50.848;4.334;2023-04-20T13:00:40;10.40;1.00
14475;DHT22;7323;50.848;4.334;2023-04-20T13:03:09;10.40;1.00
14475;DHT22;7323;50.848;4.334;2023-04-20T13:05:34;10.40;1.00
14475;DHT22;7323;50.848;4.334;2023-04-20T13:08:00;10.40;1.00
14475;DHT22;7323;50.848;4.334;2023-04-20T13:10:27;10.60;1.00
14475;DHT22;7323;50.848;4.334;2023-04-20T13:12:52;10.70;1.00
14475;DHT22;7323;50.848;4.334;2023-04-20T13:15:18;10.60;1.00
14475;DHT22;7323;50.848;4.334;2023-04-20T13:17:47;10.50;1.00
14475;DHT22;7323;50.848;4.334;2023-04-20T13:20:13;10.50;1.00
14475;DHT22;7323;50.848;4.334;2023-04-20T13:22:38;10.50;1.00
14475;DHT22;7323;50.848;4.334;2023-04-20T13:25:08;10.50;1.00
14475;DHT22;7323;50.848;4.334;2023-04-20T13:27:34;10.50;1.00
14475;DHT22;7323;50.848;4.334;2023-04-20T13:29:59;10.20;1.00
14475;DHT22;7323;50.848;4.334;2023-04-20T13:32:26;10.10;1.00
14475;DHT22;7323;50.848;4.334;2023-04-20T13:34:52;9.80;1.00
14475;DHT22;7323;50.848;4.334;2023-04-20T13:37:18;9.80;1.00
14475;DHT22;7323;50.848;4.334;2023-04-20T13:39:44;9.50;1.00
14475;DHT22;7323;50.848;4.334;2023-04-20T13:42:09;9.20;1.00
14475;DHT22;7323;50.848;4.334;2023-04-20T13:44:35;9.10;1.00
14475;DHT22;7323;50.848;4.334;2023-04-20T13:47:01;9.00;1.00
14475;DHT22;7323;50.848;4.334;2023-04-20T13:49:27;8.80;1.00
14475;DHT22;7323;50.848;4.334;2023-04-20T13:51:53;8.70;3.80
14475;DHT22;7323;50.848;4.334;2023-04-20T13:54:19;8.70;7.70
14475;DHT22;7323;50.848;4.334;2023-04-20T13:56:45;8.70;10.40
14475;DHT22;7323;50.848;4.334;2023-04-20T13:59:11;8.80;15.80
14475;DHT22;7323;50.848;4.334;2023-04-20T14:01:37;8.90;16.40
14475;DHT22;7323;50.848;4.334;2023-04-20T14:04:03;8.90;15.00
14475;DHT22;7323;50.848;4.334;2023-04-20T14:06:29;9.00;15.90
14475;DHT22;7323;50.848;4.334;2023-04-20T14:08:55;9.00;14.60
14475;DHT22;7323;50.848;4.334;2023-04-20T14:11:22;9.10;13.70
14475;DHT22;7323;50.848;4.334;2023-04-20T14:13:49;9.10;9.40
14475;DHT22;7323;50.848;4.334;2023-04-20T14:16:15;9.20;10.60
14475;DHT22;7323;50.848;4.334;2023-04-20T14:18:41;9.50;13.10
14475;DHT22;7323;50.848;4.334;2023-04-20T14:21:07;9.70;1.00
14475;DHT22;7323;50.848;4.334;2023-04-20T14:23:33;9.90;1.00
14475;DHT22;7323;50.848;4.334;2023-04-20T14:25:58;10.10;1.00
14475;DHT22;7323;50.848;4.334;2023-04-20T14:28:24;10.20;1.00
14475;DHT22;7323;50.848;4.334;2023-04-20T14:30:50;10.20;1.00
14475;DHT22;7323;50.848;4.334;2023-04-20T14:33:16;10.40;1.00
14475;DHT22;7323;50.848;4.334;2023-04-20T14:35:42;10.20;1.00
14475;DHT22;7323;50.848;4.334;2023-04-20T14:38:08;10.40;1.00
14475;DHT22;7323;50.848;4.334;2023-04-20T14:40:35;10.60;1.00
14475;DHT22;7323;50.848;4.334;2023-04-20T14:43:01;10.70;1.00
14475;DHT22;7323;50.848;4.334;2023-04-20T14:45:28;10.80;1.00
14475;DHT22;7323;50.848;4.334;2023-04-20T14:47:54;10.50;1.00
14475;DHT22;7323;50.848;4.334;2023-04-20T14:50:24;10.50;1.00
14475;DHT22;7323;50.848;4.334;2023-04-20T14:52:54;10.60;1.00
14475;DHT22;7323;50.848;4.334;2023-04-20T14:55:23;10.50;1.00
14475;DHT22;7323;50.848;4.334;2023-04-20T14:57:54;10.60;1.00
14475;DHT22;7323;50.848;4.334;2023-04-20T15:00:22;10.60;1.00
14475;DHT22;7323;50.848;4.334;2023-04-20T15:02:49;10.50;1.00
14475;DHT22;7323;50.848;4.334;2023-04-20T15:05:15;10.40;1.00
14475;DHT22;7323;50.848;4.334;2023-04-20T15:07:40;10.50;1.00
14475;DHT22;7323;50.848;4.334;2023-04-20T15:10:07;10.60;1.00
14475;DHT22;7323;50.848;4.334;2023-04-20T15:12:33;10.60;1.00
14475;DHT22;7323;50.848;4.334;2023-04-20T15:14:59;10.70;1.00
14475;DHT22;7323;50.848;4.334;2023-04-20T15:17:25;10.70;1.00
14475;DHT22;7323;50.848;4.334;2023-04-20T15:19:53;10.80;1.00
14475;DHT22;7323;50.848;4.334;2023-04-20T15:22:19;10.80;1.00
14475;DHT22;7323;50.848;4.334;2023-04-20T15:24:45;11.00;1.00
14475;DHT22;7323;50.848;4.334;2023-04-20T15:27:11;10.90;1.00
14475;DHT22;7323;50.848;4.334;2023-04-20T15:29:39;10.90;1.00
14475;DHT22;7323;50.848;4.334;2023-04-20T15:32:14;10.90;1.00
14475;DHT22;7323;50.848;4.334;2023-04-20T15:34:40;10.80;1.00
14475;DHT22;7323;50.848;4.334;2023-04-20T15:37:12;10.80;1.00
14475;DHT22;7323;50.848;4.334;2023-04-20T15:39:52;11.10;1.00
14475;DHT22;7323;50.848;4.334;2023-04-20T15:42:21;11.20;1.00
14475;DHT22;7323;50.848;4.334;2023-04-20T15:44:47;11.60;1.00
14475;DHT22;7323;50.848;4.334;2023-04-20T15:47:13;11.80;1.00
14475;DHT22;7323;50.848;4.334;2023-04-20T15:49:39;12.10;1.00
14475;DHT22;7323;50.848;4.334;2023-04-20T15:52:08;12.20;1.00
14475;DHT22;7323;50.848;4.334;2023-04-20T15:54:35;11.90;1.00
14475;DHT22;7323;50.848;4.334;2023-04-20T15:57:01;11.90;1.00
14475;DHT22;7323;50.848;4.334;2023-04-20T15:59:28;11.70;1.00
14475;DHT22;7323;50.848;4.334;2023-04-20T16:01:54;11.80;1.00
14475;DHT22;7323;50.848;4.334;2023-04-20T16:04:20;11.60;1.00
14475;DHT22;7323;50.848;4.334;2023-04-20T16:06:46;11.50;1.00
14475;DHT22;7323;50.848;4.334;2023-04-20T16:09:12;11.40;1.00
14475;DHT22;7323;50.848;4.334;2023-04-20T16:11:40;11.40;1.00
14475;DHT22;7323;50.848;4.334;2023-04-20T16:14:06;11.40;1.00
14475;DHT22;7323;50.848;4.334;2023-04-20T16:16:32;11.50;1.00
14475;DHT22;7323;50.848;4.334;2023-04-20T16:18:58;11.50;1.00
14475;DHT22;7323;50.848;4.334;2023-04-20T16:21:24;11.40;1.00
14475;DHT22;7323;50.848;4.334;2023-04-20T16:23:55;11.20;1.00
14475;DHT22;7323;50.848;4.334;2023-04-20T16:26:24;11.20;1.00
14475;DHT22;7323;50.848;4.334;2023-04-20T16:28:52;10.90;1.00
14475;DHT22;7323;50.848;4.334;2023-04-20T16:31:19;10.90;1.00
14475;DHT22;7323;50.848;4.334;2023-04-20T16:33:45;10.70;1.00
14475;DHT22;7323;50.848;4.334;2023-04-20T16:36:11;10.70;1.00
14475;DHT22;7323;50.848;4.334;2023-04-20T16:38:37;10.50;1.00
14475;DHT22;7323;50.848;4.334;2023-04-20T16:41:02;10.50;1.00
14475;DHT22;7323;50.848;4.334;2023-04-20T16:43:28;10.50;1.00
14475;DHT22;7323;50.848;4.334;2023-04-20T16:45:54;10.50;1.00
14475;DHT22;7323;50.848;4.334;2023-04-20T16:48:20;10.60;1.00
14475;DHT22;7323;50.848;4.334;2023-04-20T16:50:46;10.60;1.00
14475;DHT22;7323;50.848;4.334;2023-04-20T16:53:12;10.60;1.00
14475;DHT22;7323;50.848;4.334;2023-04-20T16:55:37;10.60;1.00
14475;DHT22;7323;50.848;4.334;2023-04-20T16:58:03;10.60;1.00
14475;DHT22;7323;50.848;4.334;2023-04-20T17:00:30;10.60;1.00
14475;DHT22;7323;50.848;4.334;2023-04-20T17:02:56;10.70;1.00
14475;DHT22;7323;50.848;4.334;2023-04-20T17:05:22;10.90;1.00
14475;DHT22;7323;50.848;4.334;2023-04-20T17:07:48;11.20;1.00
14475;DHT22;7323;50.848;4.334;2023-04-20T17:10:14;11.30;1.00
14475;DHT22;7323;50.848;4.334;2023-04-20T17:12:40;11.40;1.00
14475;DHT22;7323;50.848;4.334;2023-04-20T17:15:10;11.50;1.00
14475;DHT22;7323;50.848;4.334;2023-04-20T17:17:36;11.50;1.00
14475;DHT22;7323;50.848;4.334;2023-04-20T17:20:02;11.90;1.00
14475;DHT22;7323;50.848;4.334;2023-04-20T17:22:31;12.20;1.00
14475;DHT22;7323;50.848;4.334;2023-04-20T17:24:59;12.50;1.00
14475;DHT22;7323;50.848;4.334;2023-04-20T17:27:25;12.60;1.00
14475;DHT22;7323;50.848;4.334;2023-04-20T17:29:51;12.30;1.00
14475;DHT22;7323;50.848;4.334;2023-04-20T17:32:17;12.20;1.00
14475;DHT22;7323;50.848;4.334;2023-04-20T17:34:44;11.90;1.00
14475;DHT22;7323;50.848;4.334;2023-04-20T17:37:13;11.90;1.00
14475;DHT22;7323;50.848;4.334;2023-04-20T17:39:39;11.80;1.00
14475;DHT22;7323;50.848;4.334;2023-04-20T17:42:07;11.70;1.00
14475;DHT22;7323;50.848;4.334;2023-04-20T17:44:32;11.60;1.00
14475;DHT22;7323;50.848;4.334;2023-04-20T17:46:58;11.50;1.00
14475;DHT22;7323;50.848;4.334;2023-04-20T17:49:25;11.50;1.00
14475;DHT22;7323;50.848;4.334;2023-04-20T17:51:53;11.60;1.00
14475;DHT22;7323;50.848;4.334;2023-04-20T17:54:19;11.60;1.00
14475;DHT22;7323;50.848;4.334;2023-04-20T17:56:45;11.60;1.00
14475;DHT22;7323;50.848;4.334;2023-04-20T17:59:12;11.60;1.00
14475;DHT22;7323;50.848;4.334;2023-04-20T18:01:37;11.60;1.00
14475;DHT22;7323;50.848;4.334;2023-04-20T18:04:03;11.70;1.00
14475;DHT22;7323;50.848;4.334;2023-04-20T18:06:29;12.00;1.00
14475;DHT22;7323;50.848;4.334;2023-04-20T18:08:56;12.30;1.00
14475;DHT22;7323;50.848;4.334;2023-04-20T18:11:22;12.40;1.00
14475;DHT22;7323;50.848;4.334;2023-04-20T18:13:48;12.50;1.00
14475;DHT22;7323;50.848;4.334;2023-04-20T18:16:14;12.60;1.00
14475;DHT22;7323;50.848;4.334;2023-04-20T18:18:40;12.50;1.00
14475;DHT22;7323;50.848;4.334;2023-04-20T18:21:06;12.50;1.00
14475;DHT22;7323;50.848;4.334;2023-04-20T18:23:34;12.30;1.00
14475;DHT22;7323;50.848;4.334;2023-04-20T18:26:00;12.40;1.00
14475;DHT22;7323;50.848;4.334;2023-04-20T18:28:28;12.60;1.00